Cumberland Center, ME (04021)

8:00 AM EST on February 12, 2016 (GMT -0500)
Lawn Avenue | | Change Station
CLOSE
Current Station
Personal Weather Station
Location: Cumberland, ME
Elevation: 187 ft
Nearby Weather Stations

Elev 187 ft 43.80 °N, 70.26 °W | Updated 9 minutes ago

Clear
Clear
-3.5 °F
Feels Like -3 °F
N
0.0
Wind Variable Wind from West

Today
High -- | Low -- °F
--% Chance of Precip.
Yesterday
High -- | Low -- °F
Precip. -- in
Pressure 30.13 in
Visibility 10.0 miles
Clouds Few 3000 ft
Windchill -3 °F
Dew Point -7 °F
Humidity 83%
Rainfall 0.00 in
Snow Depth Not available.
6:44 AM 5:06 PM
Waxing Crescent, 20% visible
METAR KPWM 121251Z 28005KT 10SM FEW030 M18/M23 A3013 RMK AO2 SLP203 T11781233
Pressure 30.13 in
Visibility 10.0 miles
Clouds Few 3000 ft
Windchill -3 °F
Dew Point -7 °F
Humidity 83%
Rainfall 0.00 in
Snow Depth Not available.
6:44 AM 5:06 PM
Waxing Crescent, 20% visible
METAR KPWM 121251Z 28005KT 10SM FEW030 M18/M23 A3013 RMK AO2 SLP203 T11781233

10-Day Weather Forecast

Almanac

Astronomy

Feb. 12, 2016 Rise Set
Actual Time
Civil Twilight
Nautical Twilight
Astronomical Twilight
Moon
Length of Visible Light
Length of Day
Tomorrow will be .
, % of the Moon is Illuminated

Today's Extremes

State Highs State Lows

Community

WunderPhotos

Upload Photos

1,892,300 photos uploaded!

WunderBlog® & News

Nearby

Air Quality

  Air Quality AQ Index Pollutant
Not available.

Snow Depth

Station Depth Elevation

Earthquake Activity

City Distance Mag. Time & Date
Minimum magnitude displayed is 2.5.

Coastal Water Temperatures

Place Temperature

Stations

Nearby Weather Stations

Station Location Temp. Windchill Dew Point Humidity Wind Precip. Elev Updated Type
                   

Watches & Warnings

There are currently no watches in effect.